createdAt,value
2019-02-28T00:01:47.191Z,47.58
2019-02-28T00:04:17.850Z,47.92
2019-02-28T00:06:48.378Z,47.82
2019-02-28T00:09:18.935Z,48.15
2019-02-28T00:11:49.442Z,48.26
2019-02-28T00:14:19.900Z,48.56
2019-02-28T00:16:50.450Z,48.26
2019-02-28T00:19:23.632Z,48.35
2019-02-28T00:21:53.159Z,48.38
2019-02-28T00:24:23.624Z,48.16
2019-02-28T00:26:54.072Z,48.25
2019-02-28T00:29:24.567Z,48.31
2019-02-28T00:31:55.015Z,47.95
2019-02-28T00:34:25.508Z,48.58
2019-02-28T00:36:56.085Z,48.42
2019-02-28T00:39:26.537Z,48.49
2019-02-28T00:41:57.028Z,48.43
2019-02-28T00:44:30.481Z,48.51
2019-02-28T00:46:59.673Z,48.18
2019-02-28T00:49:30.173Z,48.23
2019-02-28T00:52:01.560Z,48.34
2019-02-28T00:54:32.698Z,48.32
2019-02-28T00:57:03.205Z,48.16
2019-02-28T00:59:33.667Z,48.17
2019-02-28T01:02:04.253Z,48.23
2019-02-28T01:04:34.713Z,48.42
2019-02-28T01:07:05.177Z,48.35
2019-02-28T01:09:35.679Z,48.08
2019-02-28T01:12:06.282Z,48.66
2019-02-28T01:14:36.737Z,48.34
2019-02-28T01:17:07.222Z,47.95
2019-02-28T01:19:41.339Z,47.77
2019-02-28T01:22:09.908Z,47.21
2019-02-28T01:24:40.443Z,46.95
2019-02-28T01:27:10.909Z,46.86
2019-02-28T01:29:41.519Z,46.46
2019-02-28T01:32:15.271Z,46.24
2019-02-28T01:34:44.150Z,46.01
2019-02-28T01:37:14.639Z,46.15
2019-02-28T01:39:45.127Z,46.22
2019-02-28T01:42:16.298Z,46.47
2019-02-28T01:44:47.742Z,46.44
2019-02-28T01:47:19.999Z,46.64
2019-02-28T01:49:50.364Z,46.83
2019-02-28T01:52:20.797Z,47.35
2019-02-28T01:54:51.291Z,47.32
2019-02-28T01:57:21.750Z,47.33
2019-02-28T01:59:52.899Z,47.79
2019-02-28T02:02:24.074Z,47.73
2019-02-28T02:04:54.523Z,47.78
2019-02-28T02:07:25.107Z,48.19
2019-02-28T02:09:55.662Z,47.73
2019-02-28T02:12:26.234Z,48.07
2019-02-28T02:14:56.690Z,47.96
2019-02-28T02:17:27.183Z,47.87
2019-02-28T02:19:57.670Z,48.03
2019-02-28T02:22:28.130Z,48.37
2019-02-28T02:24:59.322Z,48.24
2019-02-28T02:27:30.840Z,48.09
2019-02-28T02:30:01.346Z,48.55
2019-02-28T02:32:37.453Z,48.64
2019-02-28T02:35:08.108Z,48.86
2019-02-28T02:37:36.247Z,49.03
2019-02-28T02:40:07.182Z,49.14
2019-02-28T02:42:37.718Z,49.52
2019-02-28T02:45:09.347Z,49.57
2019-02-28T02:47:39.851Z,50.06
2019-02-28T02:50:12.128Z,49.52
2019-02-28T02:52:42.665Z,49.55
2019-02-28T02:55:13.495Z,49.43
2019-02-28T02:57:50.686Z,49.40
2019-02-28T03:00:17.530Z,49.69
2019-02-28T03:02:48.127Z,49.90
2019-02-28T03:05:18.592Z,49.63
2019-02-28T03:07:49.036Z,49.87
2019-02-28T03:10:19.977Z,49.56
2019-02-28T03:12:50.536Z,49.68
2019-02-28T03:15:26.934Z,49.49
2019-02-28T03:17:53.168Z,49.95
2019-02-28T03:20:23.619Z,50.01
2019-02-28T03:22:54.091Z,49.96
2019-02-28T03:25:28.259Z,49.83
2019-02-28T03:27:57.000Z,49.81
2019-02-28T03:30:32.005Z,49.97
2019-02-28T03:32:59.645Z,50.46
2019-02-28T03:35:40.312Z,50.71
2019-02-28T03:38:02.272Z,50.34
2019-02-28T03:40:39.796Z,50.24
2019-02-28T03:43:06.666Z,50.42
2019-02-28T03:45:37.166Z,50.44
2019-02-28T03:48:07.664Z,50.19
2019-02-28T03:50:38.117Z,50.56
2019-02-28T03:53:08.620Z,50.22
2019-02-28T03:55:40.813Z,50.31
2019-02-28T03:58:11.651Z,50.21
2019-02-28T04:00:42.229Z,50.33
2019-02-28T04:03:12.712Z,50.27
2019-02-28T04:05:43.389Z,50.67
2019-02-28T04:08:13.871Z,50.52
2019-02-28T04:10:44.315Z,50.56
2019-02-28T04:13:19.178Z,50.20
2019-02-28T04:16:02.349Z,50.28
2019-02-28T04:18:19.207Z,50.32
2019-02-28T04:20:49.663Z,50.44
2019-02-28T04:23:20.165Z,50.27
2019-02-28T04:25:50.611Z,50.12
2019-02-28T04:28:21.307Z,50.24
2019-02-28T04:30:51.727Z,50.24
2019-02-28T04:33:22.236Z,50.12
2019-02-28T04:35:52.692Z,50.10
2019-02-28T04:38:23.165Z,49.87
2019-02-28T04:40:53.674Z,49.84
2019-02-28T04:43:24.141Z,49.58
2019-02-28T04:45:57.694Z,49.50
2019-02-28T04:48:26.783Z,49.35
2019-02-28T04:50:57.280Z,49.26
2019-02-28T04:53:27.831Z,49.18
2019-02-28T04:55:58.350Z,49.24
2019-02-28T04:58:28.797Z,48.91
2019-02-28T05:00:59.276Z,48.97
2019-02-28T05:03:29.718Z,48.67
2019-02-28T05:06:00.216Z,48.54
2019-02-28T05:08:30.664Z,48.36
2019-02-28T05:11:01.115Z,48.17
2019-02-28T05:13:31.606Z,48.25
2019-02-28T05:16:02.102Z,47.93
2019-02-28T05:18:32.594Z,47.55
2019-02-28T05:21:03.056Z,47.46
2019-02-28T05:23:36.041Z,47.36
2019-02-28T05:26:05.701Z,47.32
2019-02-28T05:28:40.177Z,47.04
2019-02-28T05:31:08.339Z,47.48
2019-02-28T05:33:42.018Z,46.70
2019-02-28T05:36:11.079Z,46.40
2019-02-28T05:38:41.586Z,46.42
2019-02-28T05:41:15.274Z,46.35
2019-02-28T05:43:46.395Z,46.02
2019-02-28T05:46:16.879Z,46.11
2019-02-28T05:48:47.678Z,46.02
2019-02-28T05:51:18.189Z,45.70
2019-02-28T05:53:48.629Z,45.91
2019-02-28T05:56:19.126Z,46.16
2019-02-28T05:58:52.474Z,45.82
2019-02-28T06:01:21.815Z,45.79
2019-02-28T06:03:52.334Z,46.11
2019-02-28T06:06:25.377Z,45.49
2019-02-28T06:08:55.063Z,45.24
2019-02-28T06:11:25.539Z,45.13
2019-02-28T06:13:56.052Z,45.52
2019-02-28T06:16:26.568Z,44.71
2019-02-28T06:18:57.225Z,44.81
2019-02-28T06:21:27.682Z,44.52
2019-02-28T06:23:58.188Z,44.14
2019-02-28T06:26:31.914Z,44.15
2019-02-28T06:29:04.739Z,43.70
2019-02-28T06:31:34.416Z,43.74
2019-02-28T06:34:05.652Z,43.47
2019-02-28T06:36:37.287Z,43.07
2019-02-28T06:39:08.553Z,43.09
2019-02-28T06:41:39.979Z,43.86
2019-02-28T06:44:11.809Z,42.60
2019-02-28T06:46:42.310Z,42.71
2019-02-28T06:49:12.813Z,42.36
2019-02-28T06:51:43.291Z,41.72
2019-02-28T06:54:13.769Z,42.01
2019-02-28T06:56:44.487Z,41.69
2019-02-28T06:59:15.101Z,40.98
2019-02-28T07:01:45.594Z,40.66
2019-02-28T07:04:16.086Z,40.83
2019-02-28T07:06:46.633Z,40.49
2019-02-28T07:09:17.084Z,38.69
2019-02-28T07:11:47.647Z,38.70
2019-02-28T07:14:18.172Z,38.90
2019-02-28T07:16:48.743Z,37.52
2019-02-28T07:19:19.341Z,37.97
2019-02-28T07:21:49.824Z,37.15
2019-02-28T07:24:20.716Z,37.92
2019-02-28T07:26:52.295Z,37.79
2019-02-28T07:29:23.533Z,38.06
2019-02-28T07:31:59.992Z,37.82
2019-02-28T07:34:26.622Z,38.47
2019-02-28T07:36:57.066Z,38.40
2019-02-28T07:39:30.399Z,38.24
2019-02-28T07:42:02.245Z,38.33
2019-02-28T07:44:33.212Z,38.85
2019-02-28T07:47:03.757Z,38.73
2019-02-28T07:49:36.797Z,38.31
2019-02-28T07:52:06.561Z,38.22
2019-02-28T07:54:37.111Z,38.44
2019-02-28T07:57:07.584Z,38.16
2019-02-28T07:59:42.406Z,38.27
2019-02-28T08:02:13.251Z,37.97
2019-02-28T08:04:50.627Z,38.48
2019-02-28T08:07:19.816Z,38.26
2019-02-28T08:09:50.321Z,38.67
2019-02-28T08:12:20.835Z,38.22
2019-02-28T08:14:51.305Z,37.64
2019-02-28T08:17:21.798Z,37.92
2019-02-28T08:19:52.281Z,38.28
2019-02-28T08:22:24.362Z,37.79
2019-02-28T08:24:55.357Z,37.57
2019-02-28T08:27:26.260Z,38.10
2019-02-28T08:29:56.880Z,38.11
2019-02-28T08:32:27.366Z,37.11
2019-02-28T08:34:59.529Z,37.22
2019-02-28T08:37:30.121Z,36.90
2019-02-28T08:40:00.669Z,36.93
2019-02-28T08:42:31.254Z,37.23
2019-02-28T08:45:01.766Z,37.10
2019-02-28T08:47:32.316Z,37.81
2019-02-28T08:50:02.990Z,37.21
2019-02-28T08:52:33.494Z,37.58
2019-02-28T08:55:07.035Z,37.77
2019-02-28T08:57:36.176Z,37.58
2019-02-28T09:00:08.467Z,37.82
2019-02-28T09:02:39.351Z,37.47
2019-02-28T09:05:10.334Z,37.34
2019-02-28T09:07:40.959Z,38.05
2019-02-28T09:10:16.808Z,37.69
2019-02-28T09:12:47.571Z,37.23
2019-02-28T09:15:18.623Z,37.58
2019-02-28T09:17:49.293Z,36.76
2019-02-28T09:20:20.299Z,36.56
2019-02-28T09:22:51.069Z,36.85
2019-02-28T09:25:22.763Z,35.91
2019-02-28T09:27:53.575Z,35.47
2019-02-28T09:30:29.635Z,35.28
2019-02-28T09:32:58.975Z,34.95
2019-02-28T09:35:29.810Z,34.54
2019-02-28T09:38:06.268Z,34.57
2019-02-28T09:40:34.005Z,34.28
2019-02-28T09:43:04.600Z,34.46
2019-02-28T09:45:35.096Z,34.55
2019-02-28T09:48:05.831Z,33.47
2019-02-28T09:50:36.308Z,33.84
2019-02-28T09:53:06.798Z,34.20
2019-02-28T09:55:37.276Z,31.96
2019-02-28T09:58:07.932Z,33.09
2019-02-28T10:00:38.906Z,32.38
2019-02-28T10:03:09.391Z,32.88
2019-02-28T10:05:42.544Z,32.73
2019-02-28T10:08:12.067Z,32.77
2019-02-28T10:10:42.598Z,32.80
2019-02-28T10:13:14.535Z,32.64
2019-02-28T10:15:45.377Z,32.70
2019-02-28T10:18:15.862Z,32.65
2019-02-28T10:20:46.354Z,32.49
2019-02-28T10:23:18.432Z,32.63
2019-02-28T10:25:49.198Z,33.04
2019-02-28T10:28:19.772Z,32.88
2019-02-28T10:30:50.899Z,31.87
2019-02-28T10:33:21.469Z,30.57
2019-02-28T10:35:52.000Z,31.42
2019-02-28T10:38:22.563Z,31.58
2019-02-28T10:40:53.334Z,30.89
2019-02-28T10:43:23.963Z,30.43
2019-02-28T10:45:54.600Z,30.28
2019-02-28T10:48:25.625Z,29.67
2019-02-28T10:50:56.488Z,30.35
2019-02-28T10:53:27.015Z,30.67
2019-02-28T10:55:57.969Z,30.62
2019-02-28T10:58:29.638Z,30.18
2019-02-28T11:01:00.226Z,30.09
2019-02-28T11:03:32.200Z,30.32
2019-02-28T11:06:03.161Z,30.59
2019-02-28T11:08:33.973Z,30.52
2019-02-28T11:11:07.399Z,29.22
2019-02-28T11:13:37.000Z,28.12
2019-02-28T11:16:07.706Z,27.63
2019-02-28T11:18:38.330Z,27.51
2019-02-28T11:21:08.969Z,27.55
2019-02-28T11:23:39.574Z,28.14
2019-02-28T11:26:10.462Z,28.43
2019-02-28T11:28:41.186Z,27.81
2019-02-28T11:31:11.873Z,28.21
2019-02-28T11:33:42.455Z,27.47
2019-02-28T11:36:13.125Z,27.91
2019-02-28T11:38:43.732Z,27.09
2019-02-28T11:41:15.467Z,27.57
2019-02-28T11:43:46.508Z,27.61
2019-02-28T11:46:17.422Z,27.52
2019-02-28T11:48:47.998Z,26.98
2019-02-28T11:51:18.707Z,27.60
2019-02-28T11:53:49.160Z,27.11
2019-02-28T11:56:19.780Z,26.89
2019-02-28T11:58:51.757Z,26.77
2019-02-28T12:01:22.408Z,27.47
2019-02-28T12:03:53.015Z,26.61
2019-02-28T12:06:25.635Z,25.48
2019-02-28T12:08:58.537Z,24.98
2019-02-28T12:11:29.144Z,25.06
2019-02-28T12:13:59.620Z,24.77
2019-02-28T12:16:30.165Z,24.57
2019-02-28T12:19:00.621Z,24.98
2019-02-28T12:21:31.102Z,23.65
2019-02-28T12:24:01.760Z,23.27
2019-02-28T12:26:32.317Z,23.43
2019-02-28T12:29:02.811Z,23.98
2019-02-28T12:31:35.604Z,23.90
2019-02-28T12:34:05.499Z,24.21
2019-02-28T12:36:36.028Z,24.15
2019-02-28T12:39:08.815Z,24.57
2019-02-28T12:41:40.144Z,23.86
2019-02-28T12:44:12.342Z,23.96
2019-02-28T12:46:43.722Z,23.82
2019-02-28T12:49:14.177Z,24.32
2019-02-28T12:51:44.685Z,25.01
2019-02-28T12:54:15.188Z,24.77
2019-02-28T12:56:47.829Z,25.01
2019-02-28T12:59:18.002Z,25.56
2019-02-28T13:01:48.541Z,25.69
2019-02-28T13:04:19.035Z,25.58
2019-02-28T13:06:49.751Z,25.95
2019-02-28T13:09:20.362Z,25.83
2019-02-28T13:11:51.065Z,26.21
2019-02-28T13:14:21.580Z,26.50
2019-02-28T13:16:54.610Z,26.04
2019-02-28T13:19:25.561Z,25.74
2019-02-28T13:21:56.214Z,25.97
2019-02-28T13:24:26.709Z,25.75
2019-02-28T13:26:57.199Z,25.34
2019-02-28T13:29:28.783Z,25.10
2019-02-28T13:32:01.474Z,25.18
2019-02-28T13:34:32.281Z,24.86
2019-02-28T13:37:03.222Z,24.78
2019-02-28T13:39:33.756Z,25.21
2019-02-28T13:42:04.429Z,25.59
2019-02-28T13:44:36.296Z,25.91
2019-02-28T13:47:09.834Z,25.67
2019-02-28T13:49:39.397Z,26.22
2019-02-28T13:52:09.877Z,26.28
2019-02-28T13:54:42.105Z,26.33
2019-02-28T13:57:12.599Z,26.08
2019-02-28T13:59:43.129Z,26.37
2019-02-28T14:02:14.058Z,26.40
2019-02-28T14:04:44.538Z,26.35
2019-02-28T14:07:15.005Z,25.51
2019-02-28T14:09:45.586Z,25.14
2019-02-28T14:12:20.062Z,25.41
2019-02-28T14:14:48.649Z,24.61
2019-02-28T14:17:19.220Z,25.12
2019-02-28T14:19:52.768Z,25.55
2019-02-28T14:22:21.887Z,25.49
2019-02-28T14:24:52.403Z,25.39
2019-02-28T14:27:25.237Z,25.87
2019-02-28T14:29:55.125Z,25.88
2019-02-28T14:32:25.717Z,26.22
2019-02-28T14:34:57.327Z,26.24
2019-02-28T14:37:28.589Z,26.30
2019-02-28T14:39:59.123Z,26.48
2019-02-28T14:42:29.594Z,26.74
2019-02-28T14:45:00.247Z,26.65
2019-02-28T14:47:30.832Z,26.36
2019-02-28T14:50:01.368Z,26.18
2019-02-28T14:52:32.250Z,26.45
2019-02-28T14:55:02.772Z,26.47
2019-02-28T14:57:33.245Z,26.43
2019-02-28T15:00:06.507Z,26.74
2019-02-28T15:02:36.300Z,26.71
2019-02-28T15:05:08.805Z,26.58
2019-02-28T15:07:41.441Z,26.58
2019-02-28T15:10:14.228Z,26.25
2019-02-28T15:12:44.983Z,26.21
2019-02-28T15:15:18.031Z,26.39
2019-02-28T15:17:49.490Z,26.78
2019-02-28T15:20:20.370Z,26.75
2019-02-28T15:22:52.496Z,26.83
2019-02-28T15:25:23.237Z,26.79
2019-02-28T15:27:53.697Z,26.95
2019-02-28T15:30:26.379Z,26.48
2019-02-28T15:32:56.842Z,26.94
2019-02-28T15:35:27.635Z,27.41
2019-02-28T15:37:58.202Z,27.08
2019-02-28T15:40:30.789Z,26.77
2019-02-28T15:43:01.249Z,27.36
2019-02-28T15:45:31.971Z,27.49
2019-02-28T15:48:02.445Z,27.57
2019-02-28T15:50:32.965Z,27.69
2019-02-28T15:53:03.542Z,27.43
2019-02-28T15:55:35.479Z,27.90
2019-02-28T15:58:07.099Z,28.15
2019-02-28T16:00:37.969Z,28.24
2019-02-28T16:03:08.483Z,28.26
2019-02-28T16:05:44.004Z,28.72
2019-02-28T16:08:11.201Z,28.85
2019-02-28T16:10:52.630Z,28.70
2019-02-28T16:13:14.125Z,28.80
2019-02-28T16:15:46.367Z,28.75
2019-02-28T16:18:16.891Z,28.97
2019-02-28T16:20:47.489Z,29.10
2019-02-28T16:23:18.067Z,29.39
2019-02-28T16:25:50.146Z,29.11
2019-02-28T16:28:20.774Z,29.33
2019-02-28T16:30:51.291Z,29.63
2019-02-28T16:33:24.915Z,30.91
2019-02-28T16:35:54.131Z,31.48
2019-02-28T16:38:24.610Z,31.90
2019-02-28T16:40:57.736Z,31.73
2019-02-28T16:43:27.416Z,32.29
2019-02-28T16:45:57.882Z,32.50
2019-02-28T16:48:28.386Z,32.39
2019-02-28T16:50:58.996Z,32.83
2019-02-28T16:53:29.449Z,33.09
2019-02-28T16:56:02.572Z,32.97
2019-02-28T16:58:32.152Z,33.33
2019-02-28T17:01:02.607Z,33.22
2019-02-28T17:03:33.124Z,33.34
2019-02-28T17:06:03.597Z,33.62
2019-02-28T17:08:38.889Z,34.00
2019-02-28T17:11:09.349Z,33.92
2019-02-28T17:13:42.439Z,34.03
2019-02-28T17:16:26.421Z,33.94
2019-02-28T17:18:57.456Z,33.77
2019-02-28T17:21:27.860Z,33.62
2019-02-28T17:23:58.381Z,33.06
2019-02-28T17:27:06.260Z,32.70
2019-02-28T17:29:48.933Z,33.25
2019-02-28T17:32:19.779Z,32.65
2019-02-28T17:34:50.232Z,32.47
2019-02-28T17:37:26.046Z,32.52
2019-02-28T17:39:53.018Z,32.37
2019-02-28T17:42:23.639Z,32.29
2019-02-28T17:45:10.100Z,32.28
2019-02-28T17:48:36.210Z,32.49
2019-02-28T17:51:28.058Z,32.26
2019-02-28T17:54:36.290Z,32.76
2019-02-28T17:57:41.656Z,32.53
2019-02-28T18:00:51.901Z,32.49
2019-02-28T18:03:50.525Z,32.61
2019-02-28T18:07:04.638Z,32.63
2019-02-28T18:10:24.331Z,31.77
2019-02-28T18:13:35.552Z,31.98
2019-02-28T18:16:31.772Z,31.78
2019-02-28T18:19:37.474Z,31.91
2019-02-28T18:22:32.644Z,31.31
2019-02-28T18:25:44.659Z,30.89
2019-02-28T18:28:39.841Z,31.50
2019-02-28T18:31:19.253Z,31.66
2019-02-28T18:34:17.035Z,31.56
2019-02-28T18:36:48.809Z,31.55
2019-02-28T18:39:19.278Z,31.58
2019-02-28T18:41:50.807Z,31.66
2019-02-28T18:44:21.382Z,31.89
2019-02-28T18:46:51.841Z,32.19
2019-02-28T18:49:22.363Z,32.63
2019-02-28T18:51:52.834Z,32.58
2019-02-28T18:54:23.288Z,33.50
2019-02-28T18:56:53.804Z,33.29
2019-02-28T18:59:24.761Z,33.42
2019-02-28T19:01:55.282Z,33.60
2019-02-28T19:04:25.747Z,33.86
2019-02-28T19:06:56.263Z,34.45
2019-02-28T19:09:26.827Z,34.69
2019-02-28T19:11:57.337Z,35.41
2019-02-28T19:14:27.804Z,36.08
2019-02-28T19:16:58.317Z,36.47
2019-02-28T19:19:28.783Z,36.87
2019-02-28T19:21:59.421Z,37.07
2019-02-28T19:24:29.889Z,36.92
2019-02-28T19:27:00.362Z,37.06
2019-02-28T19:29:30.883Z,37.06
2019-02-28T19:32:01.452Z,37.03
2019-02-28T19:34:31.979Z,36.79
2019-02-28T19:37:02.436Z,36.75
2019-02-28T19:39:32.968Z,36.71
2019-02-28T19:42:03.552Z,36.32
2019-02-28T19:44:34.158Z,35.75
2019-02-28T19:47:04.624Z,35.35
2019-02-28T19:49:35.237Z,34.92
2019-02-28T19:52:05.838Z,34.35
2019-02-28T19:54:36.301Z,34.43
2019-02-28T19:57:06.803Z,33.80
2019-02-28T19:59:37.261Z,33.98
2019-02-28T20:02:07.852Z,33.85
2019-02-28T20:04:38.312Z,33.91
2019-02-28T20:07:08.909Z,34.14
2019-02-28T20:09:39.823Z,34.07
2019-02-28T20:12:10.342Z,33.89
2019-02-28T20:14:40.957Z,33.90
2019-02-28T20:17:11.680Z,33.97
2019-02-28T20:19:42.244Z,34.34
2019-02-28T20:22:12.750Z,34.26
2019-02-28T20:24:43.402Z,34.67
2019-02-28T20:27:14.451Z,35.05
2019-02-28T20:29:44.955Z,35.28
2019-02-28T20:32:15.572Z,35.07
2019-02-28T20:34:46.034Z,35.68
2019-02-28T20:37:16.647Z,34.87
2019-02-28T20:39:47.113Z,34.82
2019-02-28T20:42:19.572Z,34.46
2019-02-28T20:44:49.956Z,33.91
2019-02-28T20:47:20.507Z,33.95
2019-02-28T20:49:50.973Z,32.92
2019-02-28T20:52:21.488Z,32.88
2019-02-28T20:54:51.951Z,32.96
2019-02-28T20:57:22.465Z,32.42
2019-02-28T20:59:52.917Z,32.00
2019-02-28T21:02:23.370Z,31.71
2019-02-28T21:04:53.895Z,31.12
2019-02-28T21:07:24.345Z,30.70
2019-02-28T21:09:54.841Z,30.40
2019-02-28T21:12:25.368Z,30.00
2019-02-28T21:14:55.819Z,29.92
2019-02-28T21:17:29.360Z,29.58
2019-02-28T21:19:58.514Z,30.25
2019-02-28T21:22:28.979Z,31.11
2019-02-28T21:24:59.436Z,30.72
2019-02-28T21:27:29.946Z,30.29
2019-02-28T21:30:00.402Z,30.83
2019-02-28T21:32:30.914Z,31.05
2019-02-28T21:35:01.609Z,31.05
2019-02-28T21:37:32.071Z,30.96
2019-02-28T21:40:02.592Z,31.04
2019-02-28T21:42:33.092Z,31.51
2019-02-28T21:45:03.572Z,31.94
2019-02-28T21:47:34.185Z,31.31
2019-02-28T21:50:05.430Z,31.78
2019-02-28T21:52:35.888Z,32.14
2019-02-28T21:55:07.552Z,32.56
2019-02-28T21:57:38.165Z,32.36
2019-02-28T22:00:14.667Z,32.75
2019-02-28T22:02:45.115Z,32.69
2019-02-28T22:05:15.831Z,32.63
2019-02-28T22:07:46.288Z,32.89
2019-02-28T22:10:16.865Z,32.30
2019-02-28T22:12:47.480Z,32.21
2019-02-28T22:15:18.538Z,31.84
2019-02-28T22:17:49.111Z,31.76
2019-02-28T22:20:19.769Z,31.77
2019-02-28T22:22:50.237Z,31.35
2019-02-28T22:25:20.811Z,31.22
2019-02-28T22:27:51.412Z,30.49
2019-02-28T22:30:43.813Z,30.19
2019-02-28T22:33:21.332Z,30.32
2019-02-28T22:35:54.432Z,30.56
2019-02-28T22:38:24.906Z,30.19
2019-02-28T22:40:55.469Z,30.32
2019-02-28T22:43:25.935Z,30.59
2019-02-28T22:45:56.464Z,30.54
2019-02-28T22:48:26.947Z,30.81
2019-02-28T22:50:57.469Z,30.88
2019-02-28T22:53:27.985Z,30.65
2019-02-28T22:55:58.501Z,30.96
2019-02-28T22:58:29.012Z,30.64
2019-02-28T23:01:05.890Z,30.82
2019-02-28T23:03:36.795Z,30.90
2019-02-28T23:06:07.634Z,30.62
2019-02-28T23:08:38.320Z,30.61
2019-02-28T23:11:08.917Z,30.69
2019-02-28T23:13:39.479Z,30.72
2019-02-28T23:16:09.991Z,30.61
2019-02-28T23:18:40.452Z,30.77
2019-02-28T23:21:10.902Z,30.69
2019-02-28T23:23:41.402Z,30.89
2019-02-28T23:26:15.853Z,31.01
2019-02-28T23:28:53.347Z,31.44
2019-02-28T23:31:58.578Z,31.22
2019-02-28T23:34:49.737Z,31.18
2019-02-28T23:37:20.233Z,31.69
2019-02-28T23:39:50.949Z,32.02
2019-02-28T23:42:21.462Z,32.19
2019-02-28T23:44:51.954Z,32.61
2019-02-28T23:47:22.398Z,32.95
2019-02-28T23:49:52.853Z,33.00
2019-02-28T23:52:23.357Z,33.43
2019-02-28T23:54:53.835Z,33.72
2019-02-28T23:57:24.310Z,33.67
2019-02-28T23:59:54.793Z,33.86
